createdAt,value
2018-11-05T00:01:21.168Z,26.70
2018-11-05T00:03:49.492Z,26.67
2018-11-05T00:06:17.799Z,27.27
2018-11-05T00:08:46.223Z,27.67
2018-11-05T00:11:14.611Z,25.23
2018-11-05T00:13:42.939Z,27.87
2018-11-05T00:16:11.387Z,27.17
2018-11-05T00:18:39.683Z,26.73
2018-11-05T00:21:08.018Z,26.73
2018-11-05T00:23:36.329Z,27.27
2018-11-05T00:26:04.688Z,26.37
2018-11-05T00:28:32.983Z,28.07
2018-11-05T00:31:01.363Z,25.40
2018-11-05T00:33:29.653Z,26.30
2018-11-05T00:35:58.036Z,26.93
2018-11-05T00:38:26.345Z,26.80
2018-11-05T00:40:54.675Z,26.90
2018-11-05T00:43:23.016Z,28.23
2018-11-05T00:45:51.507Z,27.30
2018-11-05T00:48:19.683Z,27.00
2018-11-05T00:50:48.020Z,28.47
2018-11-05T00:53:16.442Z,26.47
2018-11-05T00:55:45.219Z,27.43
2018-11-05T00:58:13.633Z,28.67
2018-11-05T01:00:41.929Z,26.67
2018-11-05T01:03:10.237Z,27.90
2018-11-05T01:05:38.564Z,28.50
2018-11-05T01:08:06.963Z,28.77
2018-11-05T01:10:35.284Z,29.03
2018-11-05T01:13:03.562Z,27.90
2018-11-05T01:15:31.987Z,28.37
2018-11-05T01:18:00.376Z,29.13
2018-11-05T01:20:28.702Z,27.70
2018-11-05T01:22:57.004Z,28.03
2018-11-05T01:25:25.378Z,27.77
2018-11-05T01:27:53.726Z,31.07
2018-11-05T01:30:22.037Z,28.67
2018-11-05T01:32:50.326Z,29.23
2018-11-05T01:35:18.788Z,28.10
2018-11-05T01:37:47.160Z,30.33
2018-11-05T01:40:16.022Z,28.90
2018-11-05T01:42:44.589Z,30.20
2018-11-05T01:45:13.918Z,30.70
2018-11-05T01:47:42.976Z,30.57
2018-11-05T01:50:13.222Z,30.17
2018-11-05T01:52:42.081Z,29.83
2018-11-05T01:55:10.786Z,31.83
2018-11-05T01:57:39.758Z,30.93
2018-11-05T02:00:10.273Z,31.43
2018-11-05T02:02:38.722Z,31.10
2018-11-05T02:05:08.078Z,30.77
2018-11-05T02:07:36.355Z,31.50
2018-11-05T02:10:07.349Z,30.97
2018-11-05T02:12:35.690Z,31.30
2018-11-05T02:15:04.088Z,31.27
2018-11-05T02:17:32.408Z,31.50
2018-11-05T02:20:00.698Z,34.53
2018-11-05T02:22:29.380Z,33.30
2018-11-05T02:24:57.770Z,32.27
2018-11-05T02:27:26.316Z,34.23
2018-11-05T02:29:54.622Z,33.57
2018-11-05T02:32:22.969Z,32.67
2018-11-05T02:34:51.246Z,33.17
2018-11-05T02:37:19.559Z,30.97
2018-11-05T02:39:47.879Z,30.87
2018-11-05T02:42:16.234Z,33.03
2018-11-05T02:44:44.774Z,31.67
2018-11-05T02:47:13.105Z,30.53
2018-11-05T02:49:41.476Z,31.57
2018-11-05T02:52:09.807Z,32.13
2018-11-05T02:54:38.095Z,31.47
2018-11-05T02:57:06.551Z,30.80
2018-11-05T02:59:34.846Z,30.97
2018-11-05T03:02:03.150Z,31.60
2018-11-05T03:04:31.465Z,31.10
2018-11-05T03:06:59.786Z,31.77
2018-11-05T03:09:28.094Z,32.87
2018-11-05T03:11:56.389Z,31.70
2018-11-05T03:14:24.840Z,31.47
2018-11-05T03:16:53.266Z,31.43
2018-11-05T03:19:21.580Z,30.97
2018-11-05T03:21:50.011Z,32.43
2018-11-05T03:24:18.342Z,30.67
2018-11-05T03:26:46.675Z,31.67
2018-11-05T03:29:15.023Z,30.93
2018-11-05T03:31:43.351Z,31.50
2018-11-05T03:34:11.627Z,31.17
2018-11-05T03:36:39.953Z,31.20
2018-11-05T03:39:10.400Z,30.50
2018-11-05T03:41:40.016Z,31.07
2018-11-05T03:44:08.802Z,30.77
2018-11-05T03:46:37.496Z,30.00
2018-11-05T03:49:06.464Z,29.40
2018-11-05T03:51:34.987Z,30.63
2018-11-05T03:54:03.431Z,31.43
2018-11-05T03:56:31.861Z,27.30
2018-11-05T03:59:00.275Z,30.03
2018-11-05T04:01:28.618Z,28.77
2018-11-05T04:03:56.945Z,28.90
2018-11-05T04:06:25.275Z,29.63
2018-11-05T04:08:53.554Z,28.43
2018-11-05T04:11:21.914Z,26.63
2018-11-05T04:13:50.249Z,27.27
2018-11-05T04:16:18.641Z,27.13
2018-11-05T04:18:47.060Z,27.30
2018-11-05T04:21:15.437Z,27.77
2018-11-05T04:23:43.762Z,26.33
2018-11-05T04:26:12.095Z,27.23
2018-11-05T04:28:40.531Z,25.73
2018-11-05T04:31:08.848Z,27.30
2018-11-05T04:33:37.158Z,26.10
2018-11-05T04:36:05.850Z,31.60
2018-11-05T04:39:15.913Z,26.27
2018-11-05T04:41:45.672Z,25.70
2018-11-05T04:44:16.870Z,25.63
2018-11-05T04:46:45.196Z,24.17
2018-11-05T04:49:13.522Z,24.83
2018-11-05T04:51:41.881Z,24.57
2018-11-05T04:54:10.218Z,23.93
2018-11-05T04:56:38.554Z,24.97
2018-11-05T04:59:07.491Z,26.73
2018-11-05T05:01:35.854Z,26.50
2018-11-05T05:04:04.205Z,25.40
2018-11-05T05:06:32.491Z,25.90
2018-11-05T05:09:00.804Z,25.80
2018-11-05T05:11:29.217Z,26.80
2018-11-05T05:13:57.548Z,24.87
2018-11-05T05:16:25.947Z,24.13
2018-11-05T05:18:54.178Z,25.77
2018-11-05T05:21:22.515Z,27.10
2018-11-05T05:23:50.913Z,26.60
2018-11-05T05:26:19.343Z,25.13
2018-11-05T05:28:47.697Z,24.77
2018-11-05T05:31:16.026Z,25.97
2018-11-05T05:33:44.372Z,25.20
2018-11-05T05:36:12.973Z,25.17
2018-11-05T05:38:41.279Z,25.00
2018-11-05T05:41:09.770Z,25.27
2018-11-05T05:43:38.174Z,25.23
2018-11-05T05:46:06.557Z,24.17
2018-11-05T05:48:35.043Z,24.77
2018-11-05T05:51:03.358Z,25.37
2018-11-05T05:53:31.771Z,25.80
2018-11-05T05:56:00.111Z,25.57
2018-11-05T05:58:28.482Z,26.07
2018-11-05T06:00:56.838Z,25.07
2018-11-05T06:03:25.176Z,25.70
2018-11-05T06:05:56.264Z,25.43
2018-11-05T06:08:25.506Z,25.57
2018-11-05T06:10:54.521Z,26.83
2018-11-05T06:13:23.003Z,25.80
2018-11-05T06:15:51.382Z,25.50
2018-11-05T06:18:19.674Z,25.93
2018-11-05T06:20:47.942Z,26.80
2018-11-05T06:23:16.444Z,26.53
2018-11-05T06:25:44.838Z,26.57
2018-11-05T06:28:13.217Z,26.87
2018-11-05T06:30:41.803Z,26.60
2018-11-05T06:33:10.353Z,27.10
2018-11-05T06:35:38.637Z,27.83
2018-11-05T06:38:06.963Z,28.47
2018-11-05T06:40:35.409Z,28.30
2018-11-05T06:43:03.782Z,28.07
2018-11-05T06:45:32.187Z,29.20
2018-11-05T06:48:00.416Z,29.80
2018-11-05T06:50:28.781Z,28.33
2018-11-05T06:52:57.156Z,29.63
2018-11-05T07:29:57.532Z,28.47
2018-11-05T07:32:25.838Z,28.20
2018-11-05T07:34:56.226Z,29.00
2018-11-05T07:37:25.925Z,29.83
2018-11-05T07:39:54.385Z,32.13
2018-11-05T07:42:22.866Z,28.83
2018-11-05T07:44:51.227Z,30.70
2018-11-05T07:47:19.588Z,29.77
2018-11-05T07:49:52.209Z,29.40
2018-11-05T07:52:20.618Z,30.43
2018-11-05T07:54:49.201Z,29.07
2018-11-05T07:57:17.528Z,30.67
2018-11-05T07:59:46.175Z,30.27
2018-11-05T08:02:15.012Z,29.60
2018-11-05T08:04:45.712Z,30.47
2018-11-05T08:07:14.667Z,29.67
2018-11-05T08:09:43.129Z,31.13
2018-11-05T08:12:11.608Z,31.83
2018-11-05T08:15:01.325Z,31.10
2018-11-05T08:17:39.797Z,30.07
2018-11-05T08:20:14.293Z,30.93
2018-11-05T08:22:45.159Z,30.07
2018-11-05T08:25:14.302Z,31.13
2018-11-05T08:30:33.613Z,30.63
2018-11-05T08:33:19.335Z,28.70
2018-11-05T08:35:54.207Z,30.70
2018-11-05T08:38:24.821Z,30.07
2018-11-05T08:40:59.156Z,31.10
2018-11-05T08:43:27.475Z,30.33
2018-11-05T08:46:01.358Z,29.83
2018-11-05T08:48:29.892Z,29.93
2018-11-05T08:51:09.452Z,30.50
2018-11-05T08:53:46.497Z,30.50
2018-11-05T08:58:58.871Z,29.87
2018-11-05T09:01:45.289Z,29.97
2018-11-05T09:04:19.583Z,29.37
2018-11-05T09:06:57.299Z,30.80
2018-11-05T09:09:32.273Z,29.77
2018-11-05T09:12:16.368Z,30.67
2018-11-05T09:17:49.895Z,30.60
2018-11-05T09:21:22.016Z,30.60
2018-11-05T09:23:52.594Z,29.40
2018-11-05T09:26:28.668Z,30.97
2018-11-05T09:28:59.983Z,34.40
2018-11-05T09:31:34.263Z,31.70
2018-11-05T09:34:02.717Z,32.13
2018-11-05T09:36:49.157Z,31.40
2018-11-05T09:39:17.533Z,31.97
2018-11-05T09:41:45.860Z,31.63
2018-11-05T09:44:29.765Z,30.20
2018-11-05T09:47:01.131Z,31.43
2018-11-05T09:49:42.029Z,31.13
2018-11-05T09:52:30.370Z,30.03
2018-11-05T09:55:21.547Z,29.77
2018-11-05T10:01:18.930Z,29.33
2018-11-05T10:04:01.591Z,28.47
2018-11-05T10:06:29.991Z,29.53
2018-11-05T10:09:04.260Z,29.33
2018-11-05T10:20:09.123Z,28.07
2018-11-05T10:22:42.595Z,26.90
2018-11-05T10:28:22.895Z,27.67
2018-11-05T10:34:51.610Z,26.57
2018-11-05T10:49:56.160Z,25.33
2018-11-05T10:52:35.411Z,26.83
2018-11-05T11:00:55.767Z,26.17
2018-11-05T11:03:28.686Z,25.00
2018-11-05T11:08:49.751Z,26.53
2018-11-05T11:11:36.506Z,26.67
2018-11-05T11:16:40.387Z,25.53
2018-11-05T11:19:15.653Z,25.33
2018-11-05T11:21:56.357Z,27.27
2018-11-05T11:24:35.352Z,28.30
2018-11-05T11:27:03.828Z,26.83
2018-11-05T11:29:32.447Z,26.33
2018-11-05T11:32:00.760Z,24.97
2018-11-05T11:34:29.081Z,24.77
2018-11-05T11:36:57.448Z,25.67
2018-11-05T11:39:25.965Z,26.33
2018-11-05T11:44:48.799Z,25.00
2018-11-05T11:50:02.593Z,25.10
2018-11-05T11:52:30.977Z,24.17
2018-11-05T11:54:59.410Z,26.33
2018-11-05T11:57:27.854Z,25.00
2018-11-05T11:59:56.183Z,25.10
2018-11-05T12:02:24.526Z,26.03
2018-11-05T12:04:52.934Z,24.20
2018-11-05T12:07:21.251Z,24.27
2018-11-05T12:09:49.641Z,25.37
2018-11-05T12:12:19.069Z,25.63
2018-11-05T12:14:47.539Z,24.90
2018-11-05T12:17:15.721Z,24.40
2018-11-05T12:19:44.035Z,24.50
2018-11-05T12:22:12.404Z,24.17
2018-11-05T12:24:40.766Z,24.20
2018-11-05T12:27:09.076Z,24.50
2018-11-05T12:29:37.387Z,25.50
2018-11-05T12:32:06.061Z,25.30
2018-11-05T12:34:34.380Z,24.43
2018-11-05T12:37:02.679Z,25.07
2018-11-05T12:39:31.215Z,25.20
2018-11-05T12:41:59.491Z,25.50
2018-11-05T12:44:27.811Z,24.87
2018-11-05T12:46:56.120Z,25.70
2018-11-05T12:49:24.782Z,25.47
2018-11-05T12:51:53.188Z,24.53
2018-11-05T12:54:21.508Z,23.23
2018-11-05T12:56:49.807Z,25.10
2018-11-05T12:59:18.118Z,24.70
2018-11-05T13:01:46.394Z,25.73
2018-11-05T13:04:14.969Z,25.80
2018-11-05T13:06:43.219Z,26.53
2018-11-05T13:09:11.518Z,25.70
2018-11-05T13:11:39.849Z,26.77
2018-11-05T13:14:08.163Z,26.50
2018-11-05T13:16:36.519Z,26.43
2018-11-05T13:19:04.848Z,25.57
2018-11-05T13:21:33.178Z,27.23
2018-11-05T13:24:01.534Z,28.47
2018-11-05T13:26:29.866Z,27.00
2018-11-05T13:28:58.410Z,28.10
2018-11-05T13:31:26.912Z,26.67
2018-11-05T13:33:55.270Z,27.47
2018-11-05T13:36:23.608Z,26.53
2018-11-05T13:38:52.376Z,27.50
2018-11-05T13:41:20.707Z,26.47
2018-11-05T13:43:49.085Z,27.97
2018-11-05T13:46:17.740Z,27.57
2018-11-05T13:48:46.363Z,28.33
2018-11-05T13:51:14.167Z,27.83
2018-11-05T13:53:42.706Z,28.57
2018-11-05T13:56:11.012Z,28.00
2018-11-05T13:58:39.469Z,28.70
2018-11-05T14:01:07.785Z,28.17
2018-11-05T14:03:36.369Z,30.30
2018-11-05T14:06:05.174Z,29.07
2018-11-05T14:08:33.561Z,28.17
2018-11-05T14:11:01.994Z,29.57
2018-11-05T14:13:30.338Z,27.20
2018-11-05T14:15:58.814Z,28.37
2018-11-05T14:18:27.264Z,28.90
2018-11-05T14:20:55.656Z,28.90
2018-11-05T14:23:23.979Z,28.33
2018-11-05T14:25:52.314Z,28.00
2018-11-05T14:28:20.890Z,27.40
2018-11-05T14:30:48.944Z,28.47
2018-11-05T14:33:17.250Z,29.27
2018-11-05T14:35:45.728Z,27.10
2018-11-05T14:38:14.036Z,27.93
2018-11-05T14:40:42.375Z,29.17
2018-11-05T14:43:10.767Z,28.57
2018-11-05T14:45:39.063Z,27.30
2018-11-05T14:48:07.452Z,28.20
2018-11-05T14:50:36.437Z,28.03
2018-11-05T14:53:04.812Z,28.23
2018-11-05T14:55:33.225Z,28.43
2018-11-05T14:58:01.605Z,29.77
2018-11-05T15:00:35.590Z,30.23
2018-11-05T15:03:03.976Z,27.43
2018-11-05T15:05:32.299Z,28.60
2018-11-05T15:08:00.581Z,28.73
2018-11-05T15:10:28.927Z,30.87
2018-11-05T15:12:57.330Z,28.57
2018-11-05T15:15:25.696Z,28.30
2018-11-05T15:17:53.980Z,28.30
2018-11-05T15:20:23.306Z,29.80
2018-11-05T15:22:51.611Z,29.90
2018-11-05T15:25:20.575Z,31.63
2018-11-05T15:27:48.910Z,31.03
2018-11-05T15:30:18.667Z,31.00
2018-11-05T15:32:47.095Z,31.30
2018-11-05T15:35:15.661Z,31.17
2018-11-05T15:37:44.372Z,32.20
2018-11-05T15:40:14.596Z,30.83
2018-11-05T15:42:42.940Z,35.57
2018-11-05T15:45:12.595Z,32.60
2018-11-05T15:47:41.378Z,32.47
2018-11-05T15:50:11.984Z,31.17
2018-11-05T15:52:40.590Z,30.80
2018-11-05T15:55:08.790Z,31.27
2018-11-05T15:57:38.042Z,33.53
2018-11-05T16:00:13.416Z,39.47
2018-11-05T16:02:41.827Z,39.67
2018-11-05T16:05:10.223Z,37.70
2018-11-05T16:07:38.558Z,32.47
2018-11-05T16:10:07.996Z,32.73
2018-11-05T16:12:36.888Z,36.48
2018-11-05T16:15:06.090Z,31.07
2018-11-05T16:17:34.468Z,38.93
2018-11-05T16:20:02.837Z,34.53
2018-11-05T16:22:31.142Z,28.30
2018-11-05T16:24:59.824Z,35.93
2018-11-05T16:27:28.132Z,31.87
2018-11-05T16:29:56.576Z,31.60
2018-11-05T16:32:25.516Z,32.87
2018-11-05T16:34:54.067Z,31.10
2018-11-05T16:37:22.345Z,28.73
2018-11-05T16:39:50.792Z,28.13
2018-11-05T16:42:19.031Z,28.20
2018-11-05T16:44:47.363Z,27.47
2018-11-05T16:47:15.742Z,27.73
2018-11-05T16:49:44.151Z,25.67
2018-11-05T16:52:12.692Z,29.07
2018-11-05T16:54:41.028Z,31.37
2018-11-05T16:57:09.750Z,28.27
2018-11-05T16:59:38.108Z,26.80
2018-11-05T17:02:13.508Z,29.07
2018-11-05T17:04:42.196Z,28.53
2018-11-05T17:07:16.487Z,29.03
2018-11-05T17:09:45.126Z,29.57
2018-11-05T17:12:13.871Z,28.73
2018-11-05T17:14:42.398Z,33.33
2018-11-05T17:17:12.221Z,52.23
2018-11-05T17:19:40.654Z,45.03
2018-11-05T17:22:10.087Z,43.20
2018-11-05T17:24:38.620Z,41.80
2018-11-05T17:27:07.582Z,40.60
2018-11-05T17:29:36.004Z,41.00
2018-11-05T17:32:04.382Z,38.33
2018-11-05T17:34:32.713Z,34.93
2018-11-05T17:37:01.057Z,36.17
2018-11-05T17:39:29.496Z,39.70
2018-11-05T17:41:57.823Z,34.23
2018-11-05T17:44:26.185Z,36.07
2018-11-05T17:46:54.935Z,37.93
2018-11-05T17:49:23.425Z,37.47
2018-11-05T17:51:51.862Z,40.57
2018-11-05T17:54:20.503Z,52.60
2018-11-05T17:56:49.123Z,49.10
2018-11-05T17:59:17.536Z,44.23
2018-11-05T18:01:45.874Z,37.00
2018-11-05T18:04:15.309Z,39.60
2018-11-05T18:06:43.860Z,42.00
2018-11-05T18:09:12.696Z,39.07
2018-11-05T18:11:41.427Z,41.73
2018-11-05T18:14:10.372Z,42.27
2018-11-05T18:19:57.592Z,40.77
2018-11-05T18:22:26.331Z,43.33
2018-11-05T18:24:55.004Z,45.10
2018-11-05T18:27:24.401Z,52.00
2018-11-05T18:29:53.213Z,35.40
2018-11-05T18:32:22.605Z,32.47
2018-11-05T18:34:52.307Z,27.63
2018-11-05T18:37:21.121Z,27.53
2018-11-05T18:39:50.517Z,32.60
2018-11-05T18:42:18.884Z,33.20
2018-11-05T18:44:47.610Z,32.87
2018-11-05T18:47:16.616Z,32.37
2018-11-05T18:49:46.880Z,33.13
2018-11-05T18:52:15.261Z,31.20
2018-11-05T18:54:43.928Z,31.87
2018-11-05T18:57:14.104Z,36.83
2018-11-05T18:59:42.894Z,32.60
2018-11-05T19:02:15.802Z,36.33
2018-11-05T19:04:44.115Z,36.27
2018-11-05T19:07:13.700Z,33.00
2018-11-05T19:09:42.191Z,29.17
2018-11-05T19:12:10.671Z,30.07
2018-11-05T19:14:39.128Z,31.37
2018-11-05T19:17:08.625Z,31.40
2018-11-05T19:19:37.983Z,30.67
2018-11-05T19:22:06.821Z,32.13
2018-11-05T19:24:36.051Z,33.03
2018-11-05T19:27:04.647Z,35.50
2018-11-05T19:29:33.174Z,34.77
2018-11-05T19:32:02.041Z,38.37
2018-11-05T19:34:30.512Z,39.47
2018-11-05T19:36:59.510Z,43.43
2018-11-05T19:39:27.898Z,37.93
2018-11-05T19:41:56.359Z,34.30
2018-11-05T19:44:24.661Z,34.27
2018-11-05T19:46:53.163Z,35.40
2018-11-05T19:49:21.519Z,31.43
2018-11-05T19:51:49.888Z,31.67
2018-11-05T19:54:18.220Z,30.90
2018-11-05T19:56:46.578Z,32.80
2018-11-05T19:59:14.950Z,32.60
2018-11-05T20:01:43.614Z,38.27
2018-11-05T20:04:12.298Z,44.20
2018-11-05T20:06:40.667Z,48.53
2018-11-05T20:09:09.207Z,32.77
2018-11-05T20:11:37.919Z,32.93
2018-11-05T20:14:06.445Z,35.70
2018-11-05T20:16:35.035Z,37.20
2018-11-05T20:19:03.654Z,41.73
2018-11-05T20:21:32.007Z,43.70
2018-11-05T20:24:00.710Z,34.30
2018-11-05T20:26:29.480Z,30.47
2018-11-05T20:28:58.029Z,31.97
2018-11-05T20:31:26.620Z,30.87
2018-11-05T20:33:55.027Z,33.47
2018-11-05T20:36:23.285Z,32.10
2018-11-05T20:38:51.791Z,33.67
2018-11-05T20:41:20.131Z,41.47
2018-11-05T20:43:48.838Z,51.33
2018-11-05T20:46:17.213Z,31.90
2018-11-05T20:48:45.562Z,27.77
2018-11-05T20:51:14.133Z,25.20
2018-11-05T20:53:42.877Z,26.33
2018-11-05T20:56:11.328Z,25.77
2018-11-05T20:58:39.726Z,24.03
2018-11-05T21:01:08.473Z,23.73
2018-11-05T21:03:36.728Z,23.97
2018-11-05T21:06:06.497Z,29.90
2018-11-05T21:08:34.896Z,31.43
2018-11-05T21:11:03.413Z,33.87
2018-11-05T21:13:31.996Z,37.70
2018-11-05T21:16:00.595Z,44.13
2018-11-05T21:18:29.098Z,47.20
2018-11-05T21:20:57.494Z,34.70
2018-11-05T21:23:25.836Z,32.33
2018-11-05T21:25:54.205Z,35.03
2018-11-05T21:28:22.586Z,37.60
2018-11-05T21:30:51.012Z,35.83
2018-11-05T21:33:19.456Z,32.37
2018-11-05T21:35:47.762Z,32.93
2018-11-05T21:38:16.082Z,30.30
2018-11-05T21:40:44.470Z,31.57
2018-11-05T21:43:12.849Z,36.77
2018-11-05T21:45:43.060Z,42.67
2018-11-05T21:48:11.638Z,49.03
2018-11-05T21:50:39.988Z,38.10
2018-11-05T21:53:08.622Z,35.03
2018-11-05T21:55:36.951Z,37.10
2018-11-05T21:58:05.511Z,34.77
2018-11-05T22:00:33.822Z,34.13
2018-11-05T22:03:05.102Z,34.60
2018-11-05T22:05:33.410Z,38.07
2018-11-05T22:08:01.763Z,37.67
2018-11-05T22:10:30.065Z,37.37
2018-11-05T22:12:58.550Z,29.07
2018-11-05T22:15:31.090Z,28.20
2018-11-05T22:17:59.962Z,28.90
2018-11-05T22:20:28.330Z,31.03
2018-11-05T22:22:56.639Z,31.00
2018-11-05T22:25:24.934Z,31.63
2018-11-05T22:27:53.355Z,31.23
2018-11-05T22:30:23.522Z,33.10
2018-11-05T22:32:51.849Z,32.57
2018-11-05T22:35:20.207Z,32.30
2018-11-05T22:37:48.502Z,30.80
2018-11-05T22:40:16.845Z,30.83
2018-11-05T22:42:45.151Z,33.47
2018-11-05T22:45:14.647Z,31.40
2018-11-05T22:47:43.610Z,34.97
2018-11-05T22:50:11.965Z,32.60
2018-11-05T22:52:40.875Z,33.80
2018-11-05T22:55:09.726Z,31.90
2018-11-05T22:57:38.140Z,28.50
2018-11-05T23:00:16.749Z,29.63
2018-11-05T23:02:50.566Z,29.33
2018-11-05T23:05:19.080Z,27.47
2018-11-05T23:07:47.363Z,30.13
2018-11-05T23:10:15.739Z,28.73
2018-11-05T23:12:44.015Z,31.00
2018-11-05T23:15:12.461Z,31.70
2018-11-05T23:17:40.743Z,31.27
2018-11-05T23:20:09.763Z,29.97
2018-11-05T23:22:40.609Z,29.23
2018-11-05T23:25:10.977Z,28.63
2018-11-05T23:27:39.340Z,28.27
2018-11-05T23:30:09.946Z,26.30
2018-11-05T23:32:39.439Z,27.10
2018-11-05T23:35:08.752Z,34.30
2018-11-05T23:37:37.997Z,33.63
2018-11-05T23:40:07.014Z,26.83
2018-11-05T23:42:35.489Z,26.33
2018-11-05T23:45:04.002Z,26.77
2018-11-05T23:47:32.341Z,27.57
2018-11-05T23:50:00.650Z,27.17
2018-11-05T23:52:29.599Z,25.33
2018-11-05T23:54:57.899Z,25.60
2018-11-05T23:57:26.171Z,23.47
2018-11-05T23:59:54.474Z,28.23
